HAZ8802 ZPPP-ZSHC
Flight info
| Callsign | HAZ8802 |
|---|---|
| Flight time | 2h 27m |
| Altitude | 35100 |
| Route | NODIB1Y NODIB W137 LPS A581 IDGAG W80 XSH DCT JDZ DCT TXN G204 OREXA OREXA81 |
| Aircraft | A320/M-SDE3FGHIRWY/LB1 |
Departure
| Time | 2026-05-04 12:46 |
|---|---|
| Airport | Kunming Changshui International Airport (ZPPP) |
Arrival
| Time | 2026-05-04 15:13 |
|---|---|
| Airport | Hangzhou Xiaoshan International Airport (ZSHC) |
| Time | Latitude | Longitude | Altitude | Speed | Heading |
|---|---|---|---|---|---|
| 2026-05-04 12:08 | 25.11005 | 102.93786 | 6896 ft | 0 kts | 39° |
| 2026-05-04 12:21 | 25.10990 | 102.93772 | 6896 ft | 3 kts | 42° |
| 2026-05-04 12:21 | 25.10974 | 102.93756 | 6896 ft | 3 kts | 49° |
| 2026-05-04 12:22 | 25.10974 | 102.93755 | 6896 ft | 0 kts | 49° |
| 2026-05-04 12:23 | 25.10962 | 102.93746 | 6896 ft | 3 kts | 15° |
| 2026-05-04 12:24 | 25.10945 | 102.93741 | 6896 ft | 2 kts | 14° |
| 2026-05-04 12:24 | 25.10929 | 102.93744 | 6895 ft | 2 kts | 321° |
| 2026-05-04 12:24 | 25.10928 | 102.93745 | 6896 ft | 0 kts | 321° |
| 2026-05-04 12:24 | 25.10929 | 102.93743 | 6895 ft | 1 kts | 318° |
| 2026-05-04 12:25 | 25.10932 | 102.93738 | 6896 ft | 3 kts | 303° |
| 2026-05-04 12:25 | 25.10903 | 102.93690 | 6896 ft | 12 kts | 217° |
| 2026-05-04 12:25 | 25.10819 | 102.93616 | 6896 ft | 16 kts | 220° |
| 2026-05-04 12:25 | 25.10826 | 102.93531 | 6897 ft | 12 kts | 307° |
| 2026-05-04 12:26 | 25.10874 | 102.93463 | 6898 ft | 10 kts | 310° |
| 2026-05-04 12:26 | 25.10917 | 102.93403 | 6899 ft | 11 kts | 308° |
| 2026-05-04 12:26 | 25.10969 | 102.93332 | 6900 ft | 14 kts | 308° |
| 2026-05-04 12:26 | 25.11038 | 102.93236 | 6902 ft | 17 kts | 308° |
| 2026-05-04 12:27 | 25.11111 | 102.93135 | 6902 ft | 17 kts | 308° |
| 2026-05-04 12:27 | 25.11188 | 102.93027 | 6903 ft | 20 kts | 308° |
| 2026-05-04 12:27 | 25.11273 | 102.92912 | 6912 ft | 11 kts | 319° |
| 2026-05-04 12:27 | 25.11336 | 102.92909 | 6918 ft | 8 kts | 28° |
| 2026-05-04 12:28 | 25.11402 | 102.92964 | 6903 ft | 18 kts | 39° |
| 2026-05-04 12:28 | 25.11530 | 102.93074 | 6903 ft | 25 kts | 39° |
| 2026-05-04 12:28 | 25.11667 | 102.93194 | 6902 ft | 26 kts | 39° |
| 2026-05-04 12:28 | 25.11808 | 102.93316 | 6901 ft | 26 kts | 38° |
| 2026-05-04 12:29 | 25.11951 | 102.93441 | 6900 ft | 26 kts | 38° |
| 2026-05-04 12:29 | 25.12096 | 102.93566 | 6900 ft | 27 kts | 38° |
| 2026-05-04 12:29 | 25.12242 | 102.93693 | 6899 ft | 27 kts | 38° |
| 2026-05-04 12:29 | 25.12389 | 102.93821 | 6898 ft | 27 kts | 38° |
| 2026-05-04 12:30 | 25.12537 | 102.93950 | 6898 ft | 27 kts | 38° |
| 2026-05-04 12:30 | 25.12685 | 102.94078 | 6897 ft | 25 kts | 38° |
| 2026-05-04 12:30 | 25.12743 | 102.94129 | 6896 ft | 0 kts | 38° |
| 2026-05-04 12:34 | 25.12754 | 102.94138 | 6896 ft | 5 kts | 38° |
| 2026-05-04 12:34 | 25.12789 | 102.94169 | 6896 ft | 8 kts | 38° |
| 2026-05-04 12:34 | 25.12819 | 102.94194 | 6896 ft | 0 kts | 38° |
| 2026-05-04 12:35 | 25.12823 | 102.94198 | 6896 ft | 3 kts | 38° |
| 2026-05-04 12:35 | 25.12844 | 102.94216 | 6896 ft | 0 kts | 38° |
| 2026-05-04 12:39 | 25.12856 | 102.94227 | 6896 ft | 5 kts | 38° |
| 2026-05-04 12:39 | 25.12887 | 102.94254 | 6896 ft | 4 kts | 38° |
| 2026-05-04 12:40 | 25.12888 | 102.94254 | 6896 ft | 0 kts | 38° |
| 2026-05-04 12:41 | 25.12892 | 102.94258 | 6895 ft | 3 kts | 38° |
| 2026-05-04 12:41 | 25.12923 | 102.94282 | 6896 ft | 5 kts | 28° |
| 2026-05-04 12:42 | 25.12941 | 102.94282 | 6895 ft | 3 kts | 346° |
| 2026-05-04 12:42 | 25.12969 | 102.94252 | 6895 ft | 3 kts | 308° |
| 2026-05-04 12:42 | 25.12971 | 102.94251 | 6895 ft | 0 kts | 307° |
| 2026-05-04 12:44 | 25.12971 | 102.94250 | 6895 ft | 0 kts | 307° |
| 2026-05-04 12:44 | 25.13001 | 102.94208 | 6894 ft | 15 kts | 308° |
| 2026-05-04 12:44 | 25.13016 | 102.94124 | 6893 ft | 11 kts | 229° |
| 2026-05-04 12:44 | 25.13003 | 102.94113 | 6893 ft | 0 kts | 218° |
| 2026-05-04 12:45 | 25.12999 | 102.94110 | 6894 ft | 8 kts | 218° |
| 2026-05-04 12:45 | 25.12765 | 102.93906 | 6895 ft | 79 kts | 218° |
| 2026-05-04 12:45 | 25.12168 | 102.93387 | 6900 ft | 137 kts | 218° |
| 2026-05-04 12:45 | 25.11286 | 102.92619 | 6920 ft | 183 kts | 218° |
| 2026-05-04 12:46 | 25.10295 | 102.91757 | 7713 ft | 178 kts | 220° |
| 2026-05-04 12:46 | 25.09451 | 102.90764 | 8513 ft | 178 kts | 234° |
| 2026-05-04 12:46 | 25.08686 | 102.89646 | 8956 ft | 189 kts | 236° |
| 2026-05-04 12:46 | 25.07808 | 102.88461 | 9101 ft | 212 kts | 220° |
| 2026-05-04 12:47 | 25.06374 | 102.87840 | 9233 ft | 239 kts | 184° |
| 2026-05-04 12:47 | 25.04634 | 102.88018 | 9405 ft | 264 kts | 174° |
| 2026-05-04 12:47 | 25.02776 | 102.88332 | 9973 ft | 274 kts | 173° |
| 2026-05-04 12:47 | 25.00882 | 102.88680 | 10645 ft | 278 kts | 173° |
| 2026-05-04 12:48 | 24.98958 | 102.89037 | 11302 ft | 282 kts | 173° |
| 2026-05-04 12:48 | 24.97008 | 102.89390 | 11973 ft | 286 kts | 174° |
| 2026-05-04 12:48 | 24.95029 | 102.89739 | 12608 ft | 290 kts | 175° |
| 2026-05-04 12:48 | 24.93015 | 102.90222 | 12958 ft | 310 kts | 160° |
| 2026-05-04 12:49 | 24.91132 | 102.91559 | 13123 ft | 337 kts | 141° |
| 2026-05-04 12:49 | 24.89303 | 102.93305 | 13252 ft | 359 kts | 140° |
| 2026-05-04 12:49 | 24.87581 | 102.95397 | 13372 ft | 380 kts | 125° |
| 2026-05-04 12:49 | 24.86323 | 102.98032 | 13503 ft | 399 kts | 110° |
| 2026-05-04 12:50 | 24.85687 | 103.01051 | 13732 ft | 412 kts | 94° |
| 2026-05-04 12:50 | 24.85788 | 103.04211 | 14215 ft | 415 kts | 78° |
| 2026-05-04 12:50 | 24.86629 | 103.07244 | 14672 ft | 416 kts | 62° |
| 2026-05-04 12:50 | 24.88170 | 103.09925 | 15128 ft | 414 kts | 46° |
| 2026-05-04 12:51 | 24.90292 | 103.12041 | 15583 ft | 412 kts | 32° |
| 2026-05-04 12:51 | 24.92645 | 103.13859 | 16029 ft | 415 kts | 31° |
| 2026-05-04 12:51 | 24.95025 | 103.15681 | 16478 ft | 419 kts | 31° |
| 2026-05-04 12:51 | 24.97430 | 103.17521 | 16913 ft | 423 kts | 31° |
| 2026-05-04 12:52 | 24.99855 | 103.19381 | 17359 ft | 427 kts | 31° |
| 2026-05-04 12:52 | 25.02304 | 103.21264 | 17798 ft | 431 kts | 31° |
| 2026-05-04 12:52 | 25.04767 | 103.23165 | 18245 ft | 434 kts | 31° |
| 2026-05-04 12:52 | 25.07250 | 103.25087 | 18664 ft | 437 kts | 31° |
| 2026-05-04 12:53 | 25.09742 | 103.27020 | 19064 ft | 439 kts | 31° |
| 2026-05-04 12:53 | 25.12249 | 103.28966 | 19445 ft | 442 kts | 31° |
| 2026-05-04 12:53 | 25.14770 | 103.30921 | 19824 ft | 444 kts | 31° |
| 2026-05-04 12:53 | 25.17310 | 103.32889 | 20205 ft | 447 kts | 31° |
| 2026-05-04 12:54 | 25.19859 | 103.34863 | 20570 ft | 449 kts | 31° |
| 2026-05-04 12:54 | 25.22426 | 103.36850 | 20920 ft | 452 kts | 31° |
| 2026-05-04 12:54 | 25.25005 | 103.38848 | 21273 ft | 454 kts | 31° |
| 2026-05-04 12:54 | 25.27598 | 103.40858 | 21630 ft | 456 kts | 31° |
| 2026-05-04 12:55 | 25.30198 | 103.42878 | 21980 ft | 458 kts | 31° |
| 2026-05-04 12:55 | 25.32811 | 103.44911 | 22318 ft | 461 kts | 31° |
| 2026-05-04 12:55 | 25.35436 | 103.46957 | 22695 ft | 462 kts | 31° |
| 2026-05-04 12:55 | 25.38064 | 103.49002 | 23040 ft | 463 kts | 31° |
| 2026-05-04 12:56 | 25.40711 | 103.51062 | 23320 ft | 467 kts | 31° |
| 2026-05-04 12:56 | 25.43374 | 103.53136 | 23612 ft | 470 kts | 31° |
| 2026-05-04 12:56 | 25.46052 | 103.55224 | 23876 ft | 472 kts | 31° |
| 2026-05-04 12:56 | 25.48745 | 103.57323 | 24125 ft | 475 kts | 31° |
| 2026-05-04 12:57 | 25.51389 | 103.59534 | 24373 ft | 480 kts | 37° |
| 2026-05-04 12:57 | 25.53749 | 103.62177 | 24616 ft | 487 kts | 46° |
| 2026-05-04 12:57 | 25.55738 | 103.65239 | 24833 ft | 493 kts | 54° |
| 2026-05-04 12:57 | 25.57594 | 103.68442 | 25057 ft | 495 kts | 53° |
| 2026-05-04 12:58 | 25.59465 | 103.71651 | 25289 ft | 497 kts | 53° |
| 2026-05-04 12:58 | 25.61355 | 103.74871 | 25525 ft | 499 kts | 53° |
| 2026-05-04 12:58 | 25.63256 | 103.78102 | 25738 ft | 501 kts | 52° |
| 2026-05-04 12:58 | 25.65163 | 103.81342 | 25943 ft | 504 kts | 52° |
| 2026-05-04 12:59 | 25.67080 | 103.84604 | 26159 ft | 506 kts | 53° |
| 2026-05-04 12:59 | 25.68995 | 103.87882 | 26368 ft | 508 kts | 53° |
| 2026-05-04 12:59 | 25.70918 | 103.91184 | 26590 ft | 510 kts | 52° |
| 2026-05-04 12:59 | 25.72844 | 103.94495 | 26790 ft | 512 kts | 52° |
| 2026-05-04 13:00 | 25.74781 | 103.97823 | 27009 ft | 514 kts | 52° |
| 2026-05-04 13:00 | 25.76724 | 104.01163 | 27265 ft | 515 kts | 52° |
| 2026-05-04 13:00 | 25.78665 | 104.04498 | 27581 ft | 515 kts | 52° |
| 2026-05-04 13:00 | 25.80581 | 104.07789 | 27861 ft | 515 kts | 52° |
| 2026-05-04 13:01 | 25.82533 | 104.11115 | 28168 ft | 514 kts | 52° |
| 2026-05-04 13:01 | 25.84495 | 104.14438 | 28460 ft | 514 kts | 52° |
| 2026-05-04 13:01 | 25.86455 | 104.17756 | 28773 ft | 514 kts | 52° |
| 2026-05-04 13:01 | 25.88412 | 104.21075 | 29135 ft | 513 kts | 51° |
| 2026-05-04 13:02 | 25.90365 | 104.24394 | 29468 ft | 513 kts | 52° |
| 2026-05-04 13:02 | 25.92310 | 104.27711 | 29814 ft | 512 kts | 52° |
| 2026-05-04 13:02 | 25.94250 | 104.31028 | 30144 ft | 512 kts | 52° |
| 2026-05-04 13:02 | 25.96192 | 104.34350 | 30432 ft | 512 kts | 52° |
| 2026-05-04 13:03 | 25.98129 | 104.37668 | 30698 ft | 512 kts | 52° |
| 2026-05-04 13:03 | 26.00065 | 104.40984 | 30974 ft | 511 kts | 51° |
| 2026-05-04 13:03 | 26.02097 | 104.44212 | 31256 ft | 506 kts | 45° |
| 2026-05-04 13:03 | 26.04456 | 104.47062 | 31504 ft | 498 kts | 36° |
| 2026-05-04 13:04 | 26.07070 | 104.49545 | 31728 ft | 493 kts | 33° |
| 2026-05-04 13:04 | 26.09712 | 104.51974 | 31995 ft | 492 kts | 33° |
| 2026-05-04 13:04 | 26.12347 | 104.54402 | 32291 ft | 492 kts | 32° |
| 2026-05-04 13:04 | 26.14978 | 104.56833 | 32615 ft | 491 kts | 32° |
| 2026-05-04 13:05 | 26.17604 | 104.59262 | 32887 ft | 491 kts | 32° |
| 2026-05-04 13:05 | 26.20228 | 104.61689 | 33190 ft | 490 kts | 32° |
| 2026-05-04 13:05 | 26.22848 | 104.64114 | 33491 ft | 489 kts | 32° |
| 2026-05-04 13:05 | 26.25462 | 104.66531 | 33688 ft | 487 kts | 32° |
| 2026-05-04 13:06 | 26.28070 | 104.68945 | 33864 ft | 488 kts | 32° |
| 2026-05-04 13:06 | 26.30684 | 104.71369 | 34098 ft | 489 kts | 32° |
| 2026-05-04 13:06 | 26.33292 | 104.73795 | 34354 ft | 488 kts | 32° |
| 2026-05-04 13:06 | 26.35893 | 104.76218 | 34589 ft | 487 kts | 32° |
| 2026-05-04 13:07 | 26.38491 | 104.78636 | 34839 ft | 486 kts | 32° |
| 2026-05-04 13:07 | 26.41084 | 104.81050 | 35102 ft | 485 kts | 32° |
| 2026-05-04 13:07 | 26.43676 | 104.83463 | 35194 ft | 486 kts | 32° |
| 2026-05-04 13:08 | 26.48922 | 104.88336 | 35207 ft | 494 kts | 32° |
| 2026-05-04 13:08 | 26.54210 | 104.93262 | 35204 ft | 496 kts | 32° |
| 2026-05-04 13:09 | 26.59504 | 104.98211 | 35197 ft | 496 kts | 32° |
| 2026-05-04 13:09 | 26.64376 | 105.03780 | 35194 ft | 512 kts | 48° |
| 2026-05-04 13:10 | 26.67718 | 105.10930 | 35203 ft | 523 kts | 60° |
| 2026-05-04 13:10 | 26.70679 | 105.18374 | 35173 ft | 524 kts | 60° |
| 2026-05-04 13:11 | 26.73624 | 105.25784 | 35182 ft | 525 kts | 60° |
| 2026-05-04 13:11 | 26.76612 | 105.33301 | 35187 ft | 525 kts | 60° |
| 2026-05-04 13:12 | 26.79559 | 105.40727 | 35189 ft | 526 kts | 60° |
| 2026-05-04 13:12 | 26.82522 | 105.48217 | 35188 ft | 526 kts | 60° |
| 2026-05-04 13:13 | 26.85481 | 105.55718 | 35197 ft | 526 kts | 60° |
| 2026-05-04 13:13 | 26.88451 | 105.63209 | 35201 ft | 526 kts | 60° |
| 2026-05-04 13:14 | 26.91457 | 105.70690 | 35227 ft | 527 kts | 59° |
| 2026-05-04 13:14 | 26.94464 | 105.78177 | 35201 ft | 528 kts | 59° |
| 2026-05-04 13:15 | 26.97463 | 105.85704 | 35187 ft | 530 kts | 60° |
| 2026-05-04 13:15 | 27.00464 | 105.93273 | 35184 ft | 532 kts | 60° |
| 2026-05-04 13:16 | 27.03467 | 106.00862 | 35198 ft | 533 kts | 60° |
| 2026-05-04 13:16 | 27.06589 | 106.08392 | 35197 ft | 531 kts | 57° |
| 2026-05-04 13:17 | 27.09983 | 106.15738 | 35196 ft | 530 kts | 55° |
| 2026-05-04 13:17 | 27.13425 | 106.23062 | 35221 ft | 531 kts | 56° |
| 2026-05-04 13:18 | 27.16786 | 106.30448 | 35224 ft | 532 kts | 57° |
| 2026-05-04 13:18 | 27.20096 | 106.37876 | 35228 ft | 532 kts | 56° |
| 2026-05-04 13:19 | 27.23418 | 106.45292 | 35228 ft | 531 kts | 56° |
| 2026-05-04 13:19 | 27.26783 | 106.52679 | 35209 ft | 530 kts | 56° |
| 2026-05-04 13:20 | 27.30149 | 106.60059 | 35201 ft | 530 kts | 56° |
| 2026-05-04 13:20 | 27.33503 | 106.67461 | 35207 ft | 532 kts | 56° |
| 2026-05-04 13:21 | 27.36827 | 106.74828 | 35224 ft | 532 kts | 56° |
| 2026-05-04 13:21 | 27.40158 | 106.82252 | 35205 ft | 532 kts | 56° |
| 2026-05-04 13:22 | 27.43478 | 106.89694 | 35206 ft | 532 kts | 57° |
| 2026-05-04 13:22 | 27.46792 | 106.97140 | 35204 ft | 532 kts | 56° |
| 2026-05-04 13:23 | 27.50123 | 107.04570 | 35199 ft | 531 kts | 56° |
| 2026-05-04 13:23 | 27.53490 | 107.11984 | 35204 ft | 531 kts | 56° |
| 2026-05-04 13:24 | 27.56860 | 107.19394 | 35203 ft | 532 kts | 56° |
| 2026-05-04 13:24 | 27.60207 | 107.26830 | 35221 ft | 532 kts | 56° |
| 2026-05-04 13:25 | 27.65221 | 107.37985 | 35206 ft | 532 kts | 56° |
| 2026-05-04 13:25 | 27.68564 | 107.45428 | 35201 ft | 532 kts | 56° |
| 2026-05-04 13:26 | 27.71902 | 107.52875 | 35187 ft | 532 kts | 56° |
| 2026-05-04 13:26 | 27.75246 | 107.60334 | 35180 ft | 532 kts | 56° |
| 2026-05-04 13:27 | 27.78021 | 107.66539 | 35175 ft | 533 kts | 57° |
| 2026-05-04 13:27 | 27.81348 | 107.74011 | 35210 ft | 533 kts | 57° |
| 2026-05-04 13:28 | 27.84681 | 107.81483 | 35195 ft | 532 kts | 56° |
| 2026-05-04 13:28 | 27.88075 | 107.88916 | 35178 ft | 532 kts | 56° |
| 2026-05-04 13:29 | 27.91493 | 107.96340 | 35176 ft | 533 kts | 56° |
| 2026-05-04 13:29 | 27.94888 | 108.03784 | 35170 ft | 533 kts | 56° |
| 2026-05-04 13:30 | 27.98262 | 108.11244 | 35165 ft | 532 kts | 56° |
| 2026-05-04 13:30 | 28.01634 | 108.18709 | 35206 ft | 533 kts | 56° |
| 2026-05-04 13:31 | 28.05009 | 108.26182 | 35183 ft | 534 kts | 56° |
| 2026-05-04 13:31 | 28.08389 | 108.33659 | 35170 ft | 534 kts | 56° |
| 2026-05-04 13:32 | 28.11764 | 108.41152 | 35140 ft | 534 kts | 56° |
| 2026-05-04 13:32 | 28.15139 | 108.48655 | 35143 ft | 535 kts | 56° |
| 2026-05-04 13:33 | 28.18517 | 108.56185 | 35148 ft | 536 kts | 56° |
| 2026-05-04 13:33 | 28.21891 | 108.63730 | 35152 ft | 537 kts | 56° |
| 2026-05-04 13:34 | 28.25244 | 108.71239 | 35169 ft | 538 kts | 56° |
| 2026-05-04 13:34 | 28.28626 | 108.78821 | 35174 ft | 539 kts | 56° |
| 2026-05-04 13:35 | 28.33729 | 108.90219 | 35142 ft | 540 kts | 56° |
| 2026-05-04 13:36 | 28.37148 | 108.97828 | 35140 ft | 541 kts | 56° |
| 2026-05-04 13:36 | 28.40561 | 109.05448 | 35144 ft | 542 kts | 56° |
| 2026-05-04 13:37 | 28.43967 | 109.13095 | 35143 ft | 542 kts | 57° |
| 2026-05-04 13:37 | 28.47353 | 109.20765 | 35157 ft | 544 kts | 57° |
| 2026-05-04 13:38 | 28.50688 | 109.28497 | 35152 ft | 545 kts | 58° |
| 2026-05-04 13:38 | 28.54020 | 109.36248 | 35147 ft | 546 kts | 57° |
| 2026-05-04 13:39 | 28.57362 | 109.43995 | 35138 ft | 546 kts | 58° |
| 2026-05-04 13:39 | 28.60479 | 109.51902 | 35144 ft | 550 kts | 62° |
| 2026-05-04 13:40 | 28.63239 | 109.60043 | 35150 ft | 552 kts | 64° |
| 2026-05-04 13:40 | 28.65949 | 109.68224 | 35169 ft | 552 kts | 63° |
| 2026-05-04 13:41 | 28.68807 | 109.76322 | 35157 ft | 551 kts | 62° |
| 2026-05-04 13:41 | 28.71770 | 109.84365 | 35161 ft | 550 kts | 62° |
| 2026-05-04 13:42 | 28.76142 | 109.96466 | 35153 ft | 551 kts | 63° |
| 2026-05-04 13:42 | 28.79012 | 110.04572 | 35151 ft | 551 kts | 63° |
| 2026-05-04 13:43 | 28.81880 | 110.12675 | 35148 ft | 551 kts | 63° |
| 2026-05-04 13:43 | 28.84760 | 110.20788 | 35191 ft | 552 kts | 63° |
| 2026-05-04 13:44 | 28.87636 | 110.28896 | 35178 ft | 551 kts | 63° |
| 2026-05-04 13:44 | 28.90495 | 110.36999 | 35168 ft | 550 kts | 63° |
| 2026-05-04 13:45 | 28.93350 | 110.45097 | 35165 ft | 550 kts | 63° |
| 2026-05-04 13:45 | 28.96199 | 110.53193 | 35142 ft | 549 kts | 63° |
| 2026-05-04 13:46 | 28.99038 | 110.61293 | 35129 ft | 549 kts | 63° |
| 2026-05-04 13:46 | 29.01846 | 110.69349 | 35123 ft | 550 kts | 63° |
| 2026-05-04 13:47 | 29.04689 | 110.77461 | 35167 ft | 549 kts | 63° |
| 2026-05-04 13:47 | 29.07574 | 110.85535 | 35160 ft | 548 kts | 63° |
| 2026-05-04 13:48 | 29.10470 | 110.93591 | 35154 ft | 548 kts | 63° |
| 2026-05-04 13:48 | 29.13350 | 111.01650 | 35144 ft | 547 kts | 63° |
| 2026-05-04 13:49 | 29.16202 | 111.09728 | 35135 ft | 548 kts | 63° |
| 2026-05-04 13:49 | 29.19046 | 111.17807 | 35131 ft | 548 kts | 64° |
| 2026-05-04 13:50 | 29.21900 | 111.25899 | 35156 ft | 548 kts | 64° |
| 2026-05-04 13:50 | 29.24752 | 111.33990 | 35150 ft | 548 kts | 64° |
| 2026-05-04 13:51 | 29.27592 | 111.42075 | 35144 ft | 547 kts | 64° |
| 2026-05-04 13:51 | 29.30419 | 111.50158 | 35142 ft | 546 kts | 64° |
| 2026-05-04 13:52 | 29.34652 | 111.62268 | 35136 ft | 545 kts | 63° |
| 2026-05-04 13:53 | 29.38351 | 111.69718 | 35133 ft | 535 kts | 51° |
| 2026-05-04 13:53 | 29.42439 | 111.76859 | 35130 ft | 536 kts | 51° |
| 2026-05-04 13:54 | 29.48539 | 111.87618 | 35115 ft | 537 kts | 51° |
| 2026-05-04 13:55 | 29.54643 | 111.98410 | 35115 ft | 538 kts | 51° |
| 2026-05-04 13:55 | 29.60735 | 112.09178 | 35122 ft | 539 kts | 51° |
| 2026-05-04 13:56 | 29.64800 | 112.16406 | 35142 ft | 538 kts | 52° |
| 2026-05-04 13:57 | 29.70903 | 112.27246 | 35139 ft | 538 kts | 52° |
| 2026-05-04 13:58 | 29.79021 | 112.41717 | 35131 ft | 538 kts | 52° |
| 2026-05-04 13:58 | 29.85096 | 112.52578 | 35149 ft | 538 kts | 52° |
| 2026-05-04 13:59 | 29.89141 | 112.59825 | 35140 ft | 537 kts | 52° |
| 2026-05-04 14:00 | 29.95193 | 112.70705 | 35135 ft | 537 kts | 52° |
| 2026-05-04 14:00 | 30.01233 | 112.81593 | 35151 ft | 537 kts | 52° |
| 2026-05-04 14:01 | 30.05264 | 112.88851 | 35147 ft | 537 kts | 52° |
| 2026-05-04 14:02 | 30.11280 | 112.99739 | 35128 ft | 536 kts | 53° |
| 2026-05-04 14:02 | 30.15285 | 113.07000 | 35128 ft | 536 kts | 53° |
| 2026-05-04 14:03 | 30.19292 | 113.14266 | 35118 ft | 536 kts | 53° |
| 2026-05-04 14:03 | 30.23299 | 113.21547 | 35146 ft | 537 kts | 53° |
| 2026-05-04 14:04 | 30.29391 | 113.32393 | 35140 ft | 535 kts | 52° |
| 2026-05-04 14:04 | 30.33459 | 113.39612 | 35138 ft | 535 kts | 52° |
| 2026-05-04 14:05 | 30.39527 | 113.50480 | 35124 ft | 536 kts | 53° |
| 2026-05-04 14:06 | 30.43571 | 113.57734 | 35148 ft | 536 kts | 53° |
| 2026-05-04 14:06 | 30.47603 | 113.64991 | 35145 ft | 535 kts | 53° |
| 2026-05-04 14:07 | 30.51627 | 113.72238 | 35144 ft | 534 kts | 53° |
| 2026-05-04 14:07 | 30.55282 | 113.79759 | 35134 ft | 540 kts | 66° |
| 2026-05-04 14:07 | 30.56379 | 113.83935 | 35129 ft | 543 kts | 77° |
| 2026-05-04 14:08 | 30.56900 | 113.88276 | 35118 ft | 544 kts | 87° |
| 2026-05-04 14:08 | 30.56451 | 113.97019 | 35109 ft | 544 kts | 97° |
| 2026-05-04 14:09 | 30.55212 | 114.10109 | 35104 ft | 545 kts | 98° |
| 2026-05-04 14:10 | 30.53951 | 114.23151 | 35138 ft | 545 kts | 97° |
| 2026-05-04 14:10 | 30.53126 | 114.31881 | 35137 ft | 544 kts | 97° |
| 2026-05-04 14:11 | 30.52290 | 114.40606 | 35128 ft | 544 kts | 98° |
| 2026-05-04 14:11 | 30.51010 | 114.53701 | 35126 ft | 545 kts | 98° |
| 2026-05-04 14:12 | 30.50299 | 114.60961 | 35125 ft | 545 kts | 98° |
| 2026-05-04 14:13 | 30.48995 | 114.74055 | 35139 ft | 545 kts | 98° |
| 2026-05-04 14:13 | 30.48123 | 114.82789 | 35149 ft | 545 kts | 98° |
| 2026-05-04 14:14 | 30.47240 | 114.91578 | 35156 ft | 545 kts | 98° |
| 2026-05-04 14:14 | 30.45930 | 115.04618 | 35150 ft | 546 kts | 98° |
| 2026-05-04 14:15 | 30.44031 | 115.22089 | 35137 ft | 546 kts | 104° |
| 2026-05-04 14:16 | 30.41525 | 115.30284 | 35139 ft | 536 kts | 123° |
| 2026-05-04 14:16 | 30.39617 | 115.33965 | 35137 ft | 531 kts | 129° |
| 2026-05-04 14:17 | 30.33559 | 115.44733 | 35148 ft | 533 kts | 128° |
| 2026-05-04 14:18 | 30.27501 | 115.55515 | 35156 ft | 533 kts | 128° |
| 2026-05-04 14:19 | 30.19382 | 115.69879 | 35133 ft | 534 kts | 129° |
| 2026-05-04 14:19 | 30.15310 | 115.77074 | 35139 ft | 535 kts | 129° |
| 2026-05-04 14:20 | 30.11226 | 115.84270 | 35149 ft | 536 kts | 130° |
| 2026-05-04 14:20 | 30.07133 | 115.91468 | 35156 ft | 536 kts | 130° |
| 2026-05-04 14:21 | 30.00987 | 116.02258 | 35149 ft | 537 kts | 130° |
| 2026-05-04 14:21 | 29.96878 | 116.09453 | 35153 ft | 537 kts | 130° |
| 2026-05-04 14:22 | 29.92766 | 116.16638 | 35158 ft | 537 kts | 130° |
| 2026-05-04 14:22 | 29.88670 | 116.23771 | 35160 ft | 537 kts | 130° |
| 2026-05-04 14:23 | 29.82484 | 116.34543 | 35123 ft | 538 kts | 131° |
| 2026-05-04 14:24 | 29.78349 | 116.41736 | 35134 ft | 539 kts | 131° |
| 2026-05-04 14:24 | 29.74201 | 116.48936 | 35145 ft | 540 kts | 131° |
| 2026-05-04 14:25 | 29.70036 | 116.56135 | 35163 ft | 541 kts | 131° |
| 2026-05-04 14:25 | 29.65862 | 116.63345 | 35020 ft | 542 kts | 131° |
| 2026-05-04 14:25 | 29.63776 | 116.66944 | 34672 ft | 541 kts | 132° |
| 2026-05-04 14:26 | 29.61692 | 116.70535 | 34332 ft | 540 kts | 131° |
| 2026-05-04 14:26 | 29.59610 | 116.74123 | 33989 ft | 539 kts | 132° |
| 2026-05-04 14:26 | 29.57529 | 116.77706 | 33592 ft | 539 kts | 131° |
| 2026-05-04 14:26 | 29.55448 | 116.81287 | 33201 ft | 539 kts | 131° |
| 2026-05-04 14:27 | 29.53363 | 116.84871 | 32816 ft | 540 kts | 131° |
| 2026-05-04 14:27 | 29.51274 | 116.88460 | 32421 ft | 541 kts | 132° |
| 2026-05-04 14:27 | 29.49184 | 116.92047 | 32042 ft | 541 kts | 132° |
| 2026-05-04 14:27 | 29.47090 | 116.95636 | 31583 ft | 542 kts | 131° |
| 2026-05-04 14:28 | 29.44991 | 116.99227 | 31055 ft | 542 kts | 131° |
| 2026-05-04 14:28 | 29.42889 | 117.02826 | 30507 ft | 544 kts | 130° |
| 2026-05-04 14:28 | 29.41111 | 117.06701 | 29958 ft | 557 kts | 116° |
| 2026-05-04 14:28 | 29.40130 | 117.11032 | 29360 ft | 567 kts | 100° |
| 2026-05-04 14:29 | 29.40954 | 117.19968 | 28207 ft | 566 kts | 69° |
| 2026-05-04 14:29 | 29.43626 | 117.28437 | 27085 ft | 563 kts | 68° |
| 2026-05-04 14:30 | 29.44960 | 117.32643 | 26539 ft | 560 kts | 68° |
| 2026-05-04 14:30 | 29.46281 | 117.36818 | 26006 ft | 551 kts | 68° |
| 2026-05-04 14:30 | 29.48806 | 117.44851 | 24976 ft | 527 kts | 69° |
| 2026-05-04 14:31 | 29.50031 | 117.48774 | 24473 ft | 518 kts | 69° |
| 2026-05-04 14:31 | 29.52424 | 117.56450 | 23445 ft | 503 kts | 69° |
| 2026-05-04 14:32 | 29.54755 | 117.63919 | 22433 ft | 491 kts | 69° |
| 2026-05-04 14:32 | 29.55901 | 117.67593 | 21913 ft | 486 kts | 69° |
| 2026-05-04 14:32 | 29.57031 | 117.71222 | 21409 ft | 480 kts | 69° |
| 2026-05-04 14:32 | 29.58153 | 117.74820 | 20959 ft | 476 kts | 69° |
| 2026-05-04 14:33 | 29.59261 | 117.78388 | 20764 ft | 473 kts | 69° |
| 2026-05-04 14:33 | 29.60365 | 117.81950 | 20808 ft | 474 kts | 69° |
| 2026-05-04 14:33 | 29.61467 | 117.85519 | 20811 ft | 474 kts | 69° |
| 2026-05-04 14:33 | 29.62570 | 117.89083 | 20805 ft | 473 kts | 69° |
| 2026-05-04 14:34 | 29.63672 | 117.92643 | 20808 ft | 473 kts | 69° |
| 2026-05-04 14:34 | 29.64775 | 117.96209 | 20808 ft | 474 kts | 69° |
| 2026-05-04 14:34 | 29.65874 | 117.99777 | 20805 ft | 474 kts | 69° |
| 2026-05-04 14:34 | 29.66970 | 118.03345 | 20810 ft | 473 kts | 69° |
| 2026-05-04 14:35 | 29.68069 | 118.06913 | 20809 ft | 473 kts | 69° |
| 2026-05-04 14:35 | 29.69168 | 118.10483 | 20810 ft | 474 kts | 69° |
| 2026-05-04 14:35 | 29.70267 | 118.14061 | 20740 ft | 474 kts | 69° |
| 2026-05-04 14:35 | 29.71357 | 118.17620 | 20493 ft | 470 kts | 69° |
| 2026-05-04 14:36 | 29.72431 | 118.21163 | 20253 ft | 468 kts | 71° |
| 2026-05-04 14:36 | 29.73171 | 118.24800 | 20007 ft | 467 kts | 81° |
| 2026-05-04 14:36 | 29.73400 | 118.28513 | 19768 ft | 465 kts | 91° |
| 2026-05-04 14:36 | 29.73158 | 118.32211 | 19534 ft | 463 kts | 97° |
| 2026-05-04 14:37 | 29.72824 | 118.35888 | 19299 ft | 461 kts | 97° |
| 2026-05-04 14:37 | 29.72496 | 118.39556 | 19060 ft | 460 kts | 96° |
| 2026-05-04 14:37 | 29.72174 | 118.43209 | 18825 ft | 458 kts | 96° |
| 2026-05-04 14:37 | 29.72047 | 118.46860 | 18601 ft | 456 kts | 85° |
| 2026-05-04 14:38 | 29.72645 | 118.50423 | 18370 ft | 453 kts | 73° |
| 2026-05-04 14:38 | 29.73481 | 118.53860 | 18109 ft | 451 kts | 73° |
| 2026-05-04 14:38 | 29.74352 | 118.57364 | 17837 ft | 448 kts | 73° |
| 2026-05-04 14:38 | 29.75213 | 118.60793 | 17583 ft | 445 kts | 73° |
| 2026-05-04 14:39 | 29.76057 | 118.64154 | 17323 ft | 442 kts | 73° |
| 2026-05-04 14:39 | 29.76903 | 118.67540 | 17070 ft | 438 kts | 73° |
| 2026-05-04 14:39 | 29.77736 | 118.70904 | 16811 ft | 424 kts | 73° |
| 2026-05-04 14:40 | 29.79288 | 118.77216 | 16313 ft | 401 kts | 73° |
| 2026-05-04 14:40 | 29.80036 | 118.80269 | 16064 ft | 391 kts | 73° |
| 2026-05-04 14:40 | 29.80766 | 118.83248 | 15822 ft | 382 kts | 73° |
| 2026-05-04 14:40 | 29.81479 | 118.86159 | 15576 ft | 373 kts | 73° |
| 2026-05-04 14:41 | 29.82178 | 118.89003 | 15333 ft | 365 kts | 73° |
| 2026-05-04 14:41 | 29.82861 | 118.91787 | 15096 ft | 357 kts | 73° |
| 2026-05-04 14:41 | 29.84188 | 118.97187 | 14621 ft | 344 kts | 73° |
| 2026-05-04 14:42 | 29.85463 | 119.02402 | 14146 ft | 333 kts | 73° |
| 2026-05-04 14:42 | 29.86086 | 119.04955 | 13890 ft | 329 kts | 73° |
| 2026-05-04 14:42 | 29.86704 | 119.07486 | 13626 ft | 327 kts | 73° |
| 2026-05-04 14:43 | 29.87318 | 119.09997 | 13356 ft | 325 kts | 73° |
| 2026-05-04 14:43 | 29.87927 | 119.12492 | 13105 ft | 323 kts | 73° |
| 2026-05-04 14:43 | 29.88532 | 119.14975 | 12844 ft | 321 kts | 73° |
| 2026-05-04 14:43 | 29.89133 | 119.17445 | 12592 ft | 319 kts | 73° |
| 2026-05-04 14:44 | 29.89730 | 119.19899 | 12338 ft | 317 kts | 74° |
| 2026-05-04 14:44 | 29.90319 | 119.22327 | 12085 ft | 312 kts | 74° |
| 2026-05-04 14:44 | 29.90900 | 119.24712 | 11837 ft | 306 kts | 73° |
| 2026-05-04 14:44 | 29.91470 | 119.27055 | 11584 ft | 301 kts | 74° |
| 2026-05-04 14:45 | 29.92026 | 119.29357 | 11340 ft | 295 kts | 73° |
| 2026-05-04 14:45 | 29.92570 | 119.31620 | 11095 ft | 291 kts | 73° |
| 2026-05-04 14:45 | 29.93105 | 119.33847 | 10852 ft | 286 kts | 73° |
| 2026-05-04 14:45 | 29.93634 | 119.36038 | 10600 ft | 282 kts | 74° |
| 2026-05-04 14:46 | 29.94156 | 119.38195 | 10380 ft | 277 kts | 74° |
| 2026-05-04 14:46 | 29.94668 | 119.40317 | 10139 ft | 273 kts | 74° |
| 2026-05-04 14:46 | 29.95170 | 119.42407 | 9903 ft | 268 kts | 74° |
| 2026-05-04 14:46 | 29.95656 | 119.44441 | 9802 ft | 257 kts | 74° |
| 2026-05-04 14:47 | 29.96126 | 119.46405 | 9809 ft | 253 kts | 74° |
| 2026-05-04 14:47 | 29.96596 | 119.48357 | 9808 ft | 252 kts | 74° |
| 2026-05-04 14:47 | 29.97065 | 119.50308 | 9806 ft | 252 kts | 74° |
| 2026-05-04 14:47 | 29.97533 | 119.52257 | 9806 ft | 252 kts | 74° |
| 2026-05-04 14:48 | 29.98002 | 119.54209 | 9804 ft | 252 kts | 73° |
| 2026-05-04 14:48 | 29.98470 | 119.56161 | 9808 ft | 253 kts | 73° |
| 2026-05-04 14:48 | 29.98938 | 119.58119 | 9808 ft | 253 kts | 73° |
| 2026-05-04 14:48 | 29.99408 | 119.60078 | 9810 ft | 253 kts | 73° |
| 2026-05-04 14:49 | 29.99877 | 119.62035 | 9802 ft | 253 kts | 74° |
| 2026-05-04 14:49 | 30.00320 | 119.63891 | 9802 ft | 253 kts | 74° |
| 2026-05-04 14:49 | 30.00788 | 119.65849 | 9800 ft | 253 kts | 74° |
| 2026-05-04 14:49 | 30.01256 | 119.67808 | 9801 ft | 253 kts | 74° |
| 2026-05-04 14:50 | 30.01722 | 119.69769 | 9805 ft | 253 kts | 74° |
| 2026-05-04 14:50 | 30.02188 | 119.71731 | 9806 ft | 253 kts | 74° |
| 2026-05-04 14:50 | 30.02654 | 119.73692 | 9805 ft | 253 kts | 74° |
| 2026-05-04 14:50 | 30.03124 | 119.75650 | 9805 ft | 253 kts | 72° |
| 2026-05-04 14:51 | 30.03711 | 119.77564 | 9804 ft | 253 kts | 66° |
| 2026-05-04 14:51 | 30.04453 | 119.79404 | 9803 ft | 253 kts | 62° |
| 2026-05-04 14:51 | 30.05269 | 119.81203 | 9800 ft | 253 kts | 62° |
| 2026-05-04 14:51 | 30.06084 | 119.83004 | 9801 ft | 253 kts | 61° |
| 2026-05-04 14:52 | 30.06900 | 119.84809 | 9797 ft | 254 kts | 61° |
| 2026-05-04 14:52 | 30.07713 | 119.86617 | 9797 ft | 254 kts | 61° |
| 2026-05-04 14:52 | 30.08527 | 119.88425 | 9797 ft | 254 kts | 61° |
| 2026-05-04 14:52 | 30.09342 | 119.90234 | 9797 ft | 254 kts | 61° |
| 2026-05-04 14:53 | 30.10156 | 119.92046 | 9798 ft | 254 kts | 62° |
| 2026-05-04 14:53 | 30.10968 | 119.93856 | 9796 ft | 254 kts | 62° |
| 2026-05-04 14:53 | 30.11780 | 119.95667 | 9797 ft | 254 kts | 62° |
| 2026-05-04 14:53 | 30.12591 | 119.97479 | 9797 ft | 254 kts | 62° |
| 2026-05-04 14:54 | 30.13402 | 119.99292 | 9800 ft | 254 kts | 62° |
| 2026-05-04 14:54 | 30.14215 | 120.01104 | 9800 ft | 254 kts | 62° |
| 2026-05-04 14:54 | 30.15029 | 120.02915 | 9800 ft | 254 kts | 61° |
| 2026-05-04 14:54 | 30.15843 | 120.04727 | 9800 ft | 254 kts | 62° |
| 2026-05-04 14:55 | 30.16656 | 120.06537 | 9796 ft | 254 kts | 62° |
| 2026-05-04 14:55 | 30.17467 | 120.08348 | 9797 ft | 254 kts | 62° |
| 2026-05-04 14:55 | 30.18279 | 120.10162 | 9792 ft | 254 kts | 62° |
| 2026-05-04 14:55 | 30.19090 | 120.11976 | 9792 ft | 254 kts | 61° |
| 2026-05-04 14:56 | 30.19900 | 120.13789 | 9793 ft | 254 kts | 61° |
| 2026-05-04 14:56 | 30.20710 | 120.15602 | 9791 ft | 254 kts | 61° |
| 2026-05-04 14:56 | 30.21519 | 120.17413 | 9794 ft | 254 kts | 62° |
| 2026-05-04 14:56 | 30.22318 | 120.19202 | 9794 ft | 254 kts | 61° |
| 2026-05-04 14:57 | 30.23137 | 120.21039 | 9793 ft | 254 kts | 62° |
| 2026-05-04 14:57 | 30.23946 | 120.22858 | 9675 ft | 255 kts | 62° |
| 2026-05-04 14:57 | 30.24742 | 120.24649 | 9424 ft | 253 kts | 62° |
| 2026-05-04 14:57 | 30.25544 | 120.26452 | 9160 ft | 251 kts | 62° |
| 2026-05-04 14:58 | 30.26343 | 120.28254 | 8800 ft | 252 kts | 62° |
| 2026-05-04 14:58 | 30.27144 | 120.30063 | 8422 ft | 253 kts | 62° |
| 2026-05-04 14:58 | 30.27946 | 120.31876 | 8047 ft | 253 kts | 62° |
| 2026-05-04 14:58 | 30.28475 | 120.33070 | 7926 ft | 249 kts | 62° |
| 2026-05-04 14:59 | 30.29522 | 120.35440 | 7906 ft | 248 kts | 62° |
| 2026-05-04 14:59 | 30.30309 | 120.37214 | 7907 ft | 248 kts | 62° |
| 2026-05-04 14:59 | 30.31884 | 120.40762 | 7906 ft | 248 kts | 62° |
| 2026-05-04 15:00 | 30.32669 | 120.42535 | 7910 ft | 247 kts | 62° |
| 2026-05-04 15:00 | 30.33456 | 120.44307 | 7900 ft | 248 kts | 61° |
| 2026-05-04 15:00 | 30.34241 | 120.46081 | 7667 ft | 246 kts | 62° |
| 2026-05-04 15:01 | 30.35773 | 120.49544 | 7228 ft | 238 kts | 62° |
| 2026-05-04 15:01 | 30.36521 | 120.51236 | 7014 ft | 234 kts | 61° |
| 2026-05-04 15:01 | 30.37257 | 120.52904 | 6796 ft | 231 kts | 61° |
| 2026-05-04 15:01 | 30.37983 | 120.54551 | 6580 ft | 228 kts | 61° |
| 2026-05-04 15:02 | 30.38700 | 120.56179 | 6355 ft | 226 kts | 61° |
| 2026-05-04 15:02 | 30.39410 | 120.57788 | 6128 ft | 223 kts | 62° |
| 2026-05-04 15:02 | 30.40112 | 120.59381 | 5892 ft | 221 kts | 61° |
| 2026-05-04 15:02 | 30.40799 | 120.60965 | 5669 ft | 219 kts | 63° |
| 2026-05-04 15:03 | 30.41450 | 120.62552 | 5447 ft | 218 kts | 64° |
| 2026-05-04 15:03 | 30.42099 | 120.64129 | 5222 ft | 216 kts | 64° |
| 2026-05-04 15:03 | 30.42752 | 120.65694 | 4990 ft | 215 kts | 64° |
| 2026-05-04 15:03 | 30.43413 | 120.67252 | 4738 ft | 215 kts | 64° |
| 2026-05-04 15:04 | 30.44078 | 120.68798 | 4511 ft | 212 kts | 64° |
| 2026-05-04 15:04 | 30.44510 | 120.69792 | 4348 ft | 206 kts | 64° |
| 2026-05-04 15:04 | 30.45143 | 120.71818 | 3994 ft | 197 kts | 92° |
| 2026-05-04 15:04 | 30.44717 | 120.73265 | 3748 ft | 190 kts | 132° |
| 2026-05-04 15:05 | 30.44061 | 120.73920 | 3593 ft | 188 kts | 148° |
| 2026-05-04 15:05 | 30.42903 | 120.74588 | 3340 ft | 185 kts | 171° |
| 2026-05-04 15:05 | 30.41258 | 120.74250 | 3066 ft | 181 kts | 201° |
| 2026-05-04 15:05 | 30.40094 | 120.73696 | 2993 ft | 180 kts | 203° |
| 2026-05-04 15:06 | 30.39331 | 120.73316 | 2998 ft | 181 kts | 203° |
| 2026-05-04 15:06 | 30.38213 | 120.72652 | 2991 ft | 181 kts | 217° |
| 2026-05-04 15:06 | 30.37391 | 120.71555 | 3000 ft | 182 kts | 240° |
| 2026-05-04 15:07 | 30.36236 | 120.68931 | 3002 ft | 183 kts | 241° |
| 2026-05-04 15:07 | 30.35658 | 120.67618 | 3002 ft | 183 kts | 241° |
| 2026-05-04 15:07 | 30.35082 | 120.66309 | 3006 ft | 182 kts | 241° |
| 2026-05-04 15:07 | 30.34505 | 120.65000 | 3004 ft | 183 kts | 241° |
| 2026-05-04 15:08 | 30.33927 | 120.63689 | 3004 ft | 183 kts | 241° |
| 2026-05-04 15:08 | 30.33348 | 120.62376 | 2997 ft | 183 kts | 241° |
| 2026-05-04 15:08 | 30.32767 | 120.61059 | 3001 ft | 184 kts | 241° |
| 2026-05-04 15:08 | 30.32182 | 120.59734 | 2908 ft | 185 kts | 241° |
| 2026-05-04 15:09 | 30.31601 | 120.58416 | 2719 ft | 183 kts | 240° |
| 2026-05-04 15:09 | 30.31029 | 120.57122 | 2489 ft | 178 kts | 240° |
| 2026-05-04 15:09 | 30.30474 | 120.55864 | 2265 ft | 173 kts | 240° |
| 2026-05-04 15:10 | 30.29436 | 120.53515 | 1851 ft | 151 kts | 239° |
| 2026-05-04 15:10 | 30.28983 | 120.52489 | 1657 ft | 139 kts | 239° |
| 2026-05-04 15:10 | 30.28123 | 120.50548 | 1286 ft | 134 kts | 239° |
| 2026-05-04 15:11 | 30.27698 | 120.49588 | 1098 ft | 134 kts | 239° |
| 2026-05-04 15:11 | 30.27273 | 120.48628 | 932 ft | 135 kts | 239° |
| 2026-05-04 15:11 | 30.26844 | 120.47661 | 761 ft | 135 kts | 241° |
| 2026-05-04 15:11 | 30.26414 | 120.46683 | 580 ft | 137 kts | 241° |
| 2026-05-04 15:12 | 30.25973 | 120.45704 | 395 ft | 137 kts | 242° |
| 2026-05-04 15:12 | 30.25540 | 120.44718 | 222 ft | 138 kts | 243° |
| 2026-05-04 15:12 | 30.25107 | 120.43732 | 50 ft | 137 kts | 243° |
| 2026-05-04 15:12 | 30.24715 | 120.42853 | 30 ft | 103 kts | 242° |
| 2026-05-04 15:13 | 30.24468 | 120.42292 | 31 ft | 54 kts | 243° |
| 2026-05-04 15:13 | 30.24341 | 120.42013 | 33 ft | 30 kts | 239° |
| 2026-05-04 15:13 | 30.24217 | 120.41864 | 32 ft | 14 kts | 216° |
| 2026-05-04 15:13 | 30.24159 | 120.41814 | 32 ft | 7 kts | 217° |
| 2026-05-04 15:14 | 30.24155 | 120.41811 | 32 ft | 0 kts | 216° |
| 2026-05-04 15:14 | 30.24145 | 120.41802 | 31 ft | 8 kts | 216° |
| 2026-05-04 15:15 | 30.24086 | 120.41797 | 32 ft | 8 kts | 139° |
| 2026-05-04 15:15 | 30.24087 | 120.41864 | 31 ft | 13 kts | 65° |
| 2026-05-04 15:15 | 30.24151 | 120.42012 | 32 ft | 24 kts | 63° |
| 2026-05-04 15:16 | 30.24302 | 120.42352 | 32 ft | 14 kts | 63° |
| 2026-05-04 15:16 | 30.24279 | 120.42427 | 30 ft | 10 kts | 147° |
| 2026-05-04 15:16 | 30.24197 | 120.42477 | 30 ft | 4 kts | 147° |
| 2026-05-04 15:17 | 30.24177 | 120.42505 | 31 ft | 9 kts | 127° |
| 2026-05-04 15:17 | 30.24043 | 120.42599 | 32 ft | 7 kts | 143° |
| 2026-05-04 15:17 | 30.24038 | 120.42643 | 32 ft | 4 kts | 75° |
| 2026-05-04 15:18 | 30.24043 | 120.42663 | 31 ft | 2 kts | 71° |
| 2026-05-04 15:18 | 30.24044 | 120.42666 | 31 ft | 0 kts | 71° |